Etusivu
METAR-TAF:

METAR-TAF

Lentoasemat :

Mécheria, Algeria

Leveyspiiri: 34-56N, Pituuspiiri: 000-26W, korkeus merenpinnasta: 1149 m

Tämänhetkinen sää

Tämä raportti tehtiin 26 minuuttia sitten, kello 11.00 UTC
Tuuli 20 kn etelästä
Lämpötila 21°C
Kosteus 35%
Ilmanpaine 1027 hPa
Näkyvyys: 8000 m

METAR: DAAY 201100Z 18020KT 8000 NSC 21/05 Q1027

Aika: 12:26 (11:26 UTC)

Sääennuste

Tämä raportti tehtiin 3 tuntia ja 26 minuuttia sitten, kello 08.00 UTC
Ennuste voimassa 20. päivästä klo 09 UTC - 20. päivään klo 18 UTC
Tuuli 12 kn etelästä/lounaasta
Näkyvyys 10 km tai enemmän
ei pilviä alle 1500 m:ssä eikä cumulonimbus-pilviä
Tulossa
20. päivästä klo 10 UTC - 20. päivään klo 14 UTC
Tuuli 15 kn etelästä puuskistuen 25 kn:hen
Näkyvyys: 3000 m
matalaa hiekkatuisku

TAF: DAAY 200800Z 2009/2018 20012KT CAVOK BECMG 2010/2014 18015G25KT 3000 DRSA NSC

Säähavainnot ja -ennusteet yli 4000 lentoasemalta (METAR- ja TAF-raportit).

Käytössä olevat sääasemat on merkitty karttaan keltaisilla ja punaisilla pisteillä.

Aseta hiiri pisteen päälle nähdäksesi sääaseman nimen.

Klikkaa sitten nähdäksesi säähavainnot ja -ennusteet.

Kartan vaihtaminen: klikkaa mustalla rastilla varustettuja vihreitä pisteitä, niin voit zoomata sisään; viivalla varustettua vihreää pistettä, niin voit zoomata ulos tai vihreitä nuolia, niin pääset viereisille kartoille.


METAR-TAF: